Dyersville, Iowa
Current Conditions -  °F | °C
As of 11:15 AM on Friday 28 Nov 2014 (Local Time) from KMXO Reporting Station
Clear Clear  
Wind Chill: 16°   Ceiling: Unl
Heat Index: 27°   Visibility: 10mi
Dew Point: 19°   Wind: 13mph
Humidity: 74%   Direction: 140°SE
Pressure: 29.99"   Gusts: 20mph
Location:  42.48°N, 91.12°W
Report Text: KMXO 281715Z AUTO 14011G17KT 10SM CLR M03/M07 A2999 RMK AO2
Loading
Personal Weather Stations






























Interactive Weather Map New forecast layout! Learn more

10-Day Weather Forecast

Advertisements
Track Severe Weather on mobile